createdAt,value
2018-12-16T00:02:06.023Z,97297.91
2018-12-16T00:04:36.013Z,97289.86
2018-12-16T00:07:06.792Z,97269.34
2018-12-16T00:09:37.029Z,97267.58
2018-12-16T00:12:06.720Z,97254.31
2018-12-16T00:14:36.123Z,97251.63
2018-12-16T00:17:05.475Z,97244.83
2018-12-16T00:19:34.815Z,97237.18
2018-12-16T00:22:04.417Z,97227.02
2018-12-16T00:24:33.801Z,97221.47
2018-12-16T00:27:15.715Z,97213.65
2018-12-16T00:29:45.443Z,97221.76
2018-12-16T00:32:14.853Z,97220.70
2018-12-16T00:34:44.217Z,97217.30
2018-12-16T00:37:13.702Z,97208.70
2018-12-16T00:39:43.113Z,97215.09
2018-12-16T00:42:12.425Z,97216.94
2018-12-16T00:44:41.759Z,97223.24
2018-12-16T00:47:12.132Z,97230.68
2018-12-16T00:49:41.555Z,97225.94
2018-12-16T00:52:11.012Z,97229.54
2018-12-16T00:54:40.337Z,97238.14
2018-12-16T00:57:09.802Z,97231.73
2018-12-16T00:59:39.156Z,97222.62
2018-12-16T01:02:13.926Z,97226.98
2018-12-16T01:04:43.488Z,97232.09
2018-12-16T01:07:13.035Z,97230.58
2018-12-16T01:09:42.345Z,97240.16
2018-12-16T01:12:11.782Z,97238.39
2018-12-16T01:14:41.227Z,97237.19
2018-12-16T01:17:10.559Z,97224.23
2018-12-16T01:19:39.934Z,97222.95
2018-12-16T01:22:09.460Z,97213.68
2018-12-16T01:24:38.837Z,97185.71
2018-12-16T01:27:08.172Z,97168.56
2018-12-16T01:29:37.644Z,97145.95
2018-12-16T01:32:07.041Z,97135.28
2018-12-16T01:34:36.485Z,97136.53
2018-12-16T01:37:06.050Z,97126.14
2018-12-16T01:39:35.506Z,97112.95
2018-12-16T01:42:05.722Z,97106.42
2018-12-16T01:44:35.783Z,97095.52
2018-12-16T01:47:05.145Z,97088.42
2018-12-16T01:49:34.527Z,97092.70
2018-12-16T01:52:03.979Z,97098.39
2018-12-16T01:54:33.512Z,97088.74
2018-12-16T01:57:02.937Z,97083.89
2018-12-16T01:59:32.407Z,97078.77
2018-12-16T02:02:01.738Z,97072.55
2018-12-16T02:04:31.091Z,97076.13
2018-12-16T02:07:00.535Z,97067.50
2018-12-16T02:09:30.139Z,97066.16
2018-12-16T02:11:59.535Z,97058.86
2018-12-16T02:14:28.806Z,97071.66
2018-12-16T02:16:58.119Z,97079.76
2018-12-16T02:19:27.681Z,97074.48
2018-12-16T02:21:57.141Z,97077.92
2018-12-16T02:24:26.664Z,97074.22
2018-12-16T02:26:55.969Z,97062.80
2018-12-16T02:29:25.547Z,97066.50
2018-12-16T02:31:55.059Z,97084.86
2018-12-16T02:34:24.498Z,97083.22
2018-12-16T02:36:53.870Z,97089.44
2018-12-16T02:39:23.223Z,97094.39
2018-12-16T02:41:52.638Z,97084.88
2018-12-16T02:44:22.336Z,97086.45
2018-12-16T02:46:52.240Z,97086.55
2018-12-16T02:49:21.584Z,97074.09
2018-12-16T02:51:51.073Z,97083.97
2018-12-16T02:54:20.449Z,97078.03
2018-12-16T02:56:49.789Z,97085.29
2018-12-16T02:59:19.339Z,97079.78
2018-12-16T03:01:48.920Z,97081.34
2018-12-16T03:04:18.440Z,97069.52
2018-12-16T03:06:47.856Z,97077.43
2018-12-16T03:09:17.300Z,97078.91
2018-12-16T03:11:46.686Z,97072.99
2018-12-16T03:14:16.135Z,97070.67
2018-12-16T03:16:45.425Z,97062.04
2018-12-16T03:19:14.804Z,97060.28
2018-12-16T03:21:44.150Z,97050.51
2018-12-16T03:24:13.548Z,97039.14
2018-12-16T03:26:42.875Z,97040.97
2018-12-16T03:29:12.215Z,97038.75
2018-12-16T03:31:41.728Z,97035.93
2018-12-16T03:34:12.140Z,97043.08
2018-12-16T03:36:41.535Z,97029.71
2018-12-16T03:39:10.859Z,97042.61
2018-12-16T03:41:40.399Z,97033.91
2018-12-16T03:44:09.760Z,97038.64
2018-12-16T03:46:39.220Z,97035.02
2018-12-16T03:49:08.608Z,97031.08
2018-12-16T03:51:37.981Z,97013.30
2018-12-16T03:54:07.546Z,97009.66
2018-12-16T03:56:37.025Z,96989.95
2018-12-16T04:02:19.528Z,96968.27
2018-12-16T04:04:49.190Z,96974.56
2018-12-16T04:07:18.610Z,96964.87
2018-12-16T04:09:47.989Z,96968.80
2018-12-16T04:12:17.414Z,96960.82
2018-12-16T04:14:46.713Z,96959.10
2018-12-16T04:17:16.021Z,96969.91
2018-12-16T04:19:45.389Z,96967.58
2018-12-16T04:22:14.784Z,96967.58
2018-12-16T04:24:44.191Z,96968.76
2018-12-16T04:27:13.552Z,96983.50
2018-12-16T04:29:42.924Z,96982.13
2018-12-16T04:32:12.355Z,96980.71
2018-12-16T04:34:42.052Z,96979.27
2018-12-16T04:37:11.521Z,96966.50
2018-12-16T04:39:40.934Z,96972.92
2018-12-16T04:42:10.271Z,96974.27
2018-12-16T04:44:39.678Z,96962.34
2018-12-16T04:47:09.033Z,96962.66
2018-12-16T04:49:38.495Z,96972.47
2018-12-16T04:52:08.233Z,96967.88
2018-12-16T04:54:37.503Z,96957.80
2018-12-16T04:57:06.834Z,96943.82
2018-12-16T04:59:36.157Z,96943.70
2018-12-16T05:02:05.582Z,96953.91
2018-12-16T05:04:34.922Z,96945.08
2018-12-16T05:07:04.459Z,96945.73
2018-12-16T05:09:33.992Z,96942.44
2018-12-16T05:12:03.378Z,96937.59
2018-12-16T05:14:32.784Z,96934.89
2018-12-16T05:17:02.149Z,96938.59
2018-12-16T05:19:31.553Z,96941.18
2018-12-16T05:22:00.802Z,96940.77
2018-12-16T05:24:30.148Z,96936.41
2018-12-16T05:26:59.648Z,96934.39
2018-12-16T05:29:29.048Z,96921.59
2018-12-16T05:31:58.434Z,96925.04
2018-12-16T05:34:27.734Z,96914.95
2018-12-16T05:36:57.188Z,96911.17
2018-12-16T05:39:26.606Z,96921.45
2018-12-16T05:41:56.045Z,96914.65
2018-12-16T05:44:25.394Z,96911.70
2018-12-16T05:46:54.296Z,96902.88
2018-12-16T05:49:23.623Z,96911.78
2018-12-16T05:51:52.901Z,96910.31
2018-12-16T05:54:22.379Z,96922.80
2018-12-16T05:56:51.674Z,96918.34
2018-12-16T05:59:21.259Z,96912.30
2018-12-16T06:04:53.813Z,96891.48
2018-12-16T06:07:23.587Z,96893.93
2018-12-16T06:09:53.020Z,96905.22
2018-12-16T06:12:22.460Z,96911.53
2018-12-16T06:14:51.739Z,96904.84
2018-12-16T06:17:21.325Z,96897.73
2018-12-16T06:19:50.743Z,96907.44
2018-12-16T06:22:20.111Z,96912.73
2018-12-16T06:24:49.453Z,96903.22
2018-12-16T06:27:18.828Z,96889.53
2018-12-16T06:32:49.771Z,96888.86
2018-12-16T06:35:19.639Z,96872.27
2018-12-16T06:37:49.014Z,96874.61
2018-12-16T06:40:18.531Z,96876.50
2018-12-16T06:42:47.950Z,96874.47
2018-12-16T06:45:17.375Z,96882.50
2018-12-16T06:47:46.737Z,96888.80
2018-12-16T06:50:16.400Z,96891.05
2018-12-16T06:52:45.791Z,96889.62
2018-12-16T06:55:15.150Z,96895.47
2018-12-16T06:57:44.894Z,96907.20
2018-12-16T07:00:14.568Z,96914.84
2018-12-16T07:05:48.867Z,96917.47
2018-12-16T07:08:18.196Z,96916.59
2018-12-16T07:10:47.550Z,96919.45
2018-12-16T07:13:17.217Z,96919.13
2018-12-16T07:15:46.590Z,96921.27
2018-12-16T07:18:15.984Z,96908.84
2018-12-16T07:20:45.442Z,96908.59
2018-12-16T07:23:14.969Z,96904.81
2018-12-16T07:25:44.555Z,96896.48
2018-12-16T07:28:14.053Z,96903.24
2018-12-16T07:30:43.366Z,96898.51
2018-12-16T07:33:13.069Z,96911.06
2018-12-16T07:35:42.415Z,96906.13
2018-12-16T07:38:11.818Z,96912.93
2018-12-16T07:40:41.121Z,96924.28
2018-12-16T07:43:10.424Z,96912.93
2018-12-16T07:45:40.458Z,96900.94
2018-12-16T07:48:09.808Z,96894.70
2018-12-16T07:50:38.375Z,96895.45
2018-12-16T07:53:08.135Z,96885.48
2018-12-16T07:55:37.678Z,96879.84
2018-12-16T07:58:07.508Z,96882.69
2018-12-16T08:00:38.253Z,96880.16
2018-12-16T08:03:07.916Z,96870.69
2018-12-16T08:05:37.484Z,96863.92
2018-12-16T08:08:06.794Z,96865.81
2018-12-16T08:10:36.190Z,96870.72
2018-12-16T08:13:05.677Z,96882.95
2018-12-16T08:15:35.115Z,96882.53
2018-12-16T08:18:04.545Z,96882.06
2018-12-16T08:20:34.768Z,96874.73
2018-12-16T08:23:04.411Z,96879.25
2018-12-16T08:25:33.924Z,96891.00
2018-12-16T08:28:03.363Z,96899.91
2018-12-16T08:30:32.701Z,96901.34
2018-12-16T08:33:02.866Z,96892.20
2018-12-16T08:35:32.248Z,96895.91
2018-12-16T08:38:01.634Z,96898.73
2018-12-16T08:40:31.002Z,96890.28
2018-12-16T08:43:00.446Z,96888.94
2018-12-16T08:45:29.819Z,96887.34
2018-12-16T08:47:59.278Z,96878.89
2018-12-16T08:50:28.840Z,96874.78
2018-12-16T08:52:59.206Z,96890.89
2018-12-16T08:55:28.733Z,96886.16
2018-12-16T08:57:59.008Z,96891.70
2018-12-16T09:00:28.381Z,96898.32
2018-12-16T09:02:57.778Z,96900.23
2018-12-16T09:05:27.204Z,96900.55
2018-12-16T09:07:56.651Z,96903.55
2018-12-16T09:13:26.496Z,96896.45
2018-12-16T09:15:56.555Z,96899.76
2018-12-16T09:18:26.249Z,96892.95
2018-12-16T09:23:57.866Z,96883.65
2018-12-16T09:26:27.490Z,96877.17
2018-12-16T09:28:56.816Z,96870.98
2018-12-16T09:31:26.446Z,96869.66
2018-12-16T09:36:49.737Z,96861.75
2018-12-16T09:39:19.170Z,96857.25
2018-12-16T09:41:48.529Z,96839.72
2018-12-16T09:44:17.797Z,96847.91
2018-12-16T09:46:47.533Z,96846.98
2018-12-16T09:49:17.025Z,96857.96
2018-12-16T09:51:46.549Z,96852.67
2018-12-16T09:54:15.911Z,96864.34
2018-12-16T09:56:45.333Z,96864.19
2018-12-16T09:59:14.692Z,96857.70
2018-12-16T10:01:44.036Z,96862.59
2018-12-16T10:04:13.470Z,96873.16
2018-12-16T10:06:42.820Z,96871.90
2018-12-16T10:09:12.305Z,96870.47
2018-12-16T10:11:41.625Z,96869.50
2018-12-16T10:14:10.954Z,96867.68
2018-12-16T10:16:40.394Z,96864.22
2018-12-16T10:19:09.714Z,96871.25
2018-12-16T10:21:39.082Z,96876.30
2018-12-16T10:24:08.567Z,96855.85
2018-12-16T10:26:38.021Z,96861.82
2018-12-16T10:29:07.359Z,96853.91
2018-12-16T10:31:36.712Z,96861.43
2018-12-16T10:34:06.115Z,96860.39
2018-12-16T10:36:35.573Z,96859.03
2018-12-16T10:39:08.151Z,96855.46
2018-12-16T10:41:37.536Z,96865.41
2018-12-16T10:44:07.115Z,96858.44
2018-12-16T10:46:36.766Z,96860.19
2018-12-16T10:49:06.225Z,96848.66
2018-12-16T10:51:35.670Z,96844.21
2018-12-16T10:54:05.170Z,96838.22
2018-12-16T10:56:34.576Z,96840.08
2018-12-16T10:59:04.088Z,96837.39
2018-12-16T11:04:36.598Z,96829.51
2018-12-16T11:07:06.049Z,96815.17
2018-12-16T11:09:35.493Z,96812.02
2018-12-16T11:12:05.001Z,96804.55
2018-12-16T11:14:34.352Z,96811.52
2018-12-16T11:17:04.574Z,96821.30
2018-12-16T11:19:33.962Z,96818.89
2018-12-16T11:22:03.282Z,96822.36
2018-12-16T11:24:32.644Z,96823.63
2018-12-16T11:27:02.011Z,96828.63
2018-12-16T11:32:32.641Z,96828.34
2018-12-16T11:35:02.052Z,96818.47
2018-12-16T11:37:31.405Z,96824.67
2018-12-16T11:40:00.681Z,96826.89
2018-12-16T11:42:30.288Z,96823.08
2018-12-16T11:44:59.840Z,96838.97
2018-12-16T11:47:29.203Z,96834.85
2018-12-16T11:49:58.585Z,96834.52
2018-12-16T11:52:27.988Z,96839.86
2018-12-16T11:54:57.276Z,96838.98
2018-12-16T11:57:26.749Z,96824.03
2018-12-16T11:59:56.018Z,96835.13
2018-12-16T12:02:32.786Z,96833.87
2018-12-16T12:04:59.498Z,96833.71
2018-12-16T12:07:28.890Z,96836.11
2018-12-16T12:09:58.257Z,96824.16
2018-12-16T12:12:27.570Z,96820.13
2018-12-16T12:14:56.899Z,96823.59
2018-12-16T12:17:26.328Z,96812.66
2018-12-16T12:19:55.631Z,96803.86
2018-12-16T12:22:24.976Z,96800.00
2018-12-16T12:24:54.437Z,96796.17
2018-12-16T12:27:23.882Z,96801.98
2018-12-16T12:29:53.411Z,96811.19
2018-12-16T12:32:22.821Z,96816.76
2018-12-16T12:34:52.138Z,96822.00
2018-12-16T12:37:21.429Z,96808.63
2018-12-16T12:39:50.765Z,96809.20
2018-12-16T12:42:20.196Z,96807.84
2018-12-16T12:44:49.458Z,96800.91
2018-12-16T12:47:18.915Z,96793.26
2018-12-16T12:49:48.190Z,96802.75
2018-12-16T12:52:17.505Z,96801.81
2018-12-16T12:54:47.407Z,96791.81
2018-12-16T12:57:16.715Z,96794.67
2018-12-16T12:59:46.272Z,96786.90
2018-12-16T13:02:15.906Z,96787.26
2018-12-16T13:04:45.214Z,96784.99
2018-12-16T13:07:14.507Z,96786.91
2018-12-16T13:12:43.164Z,96802.23
2018-12-16T13:15:12.546Z,96805.73
2018-12-16T13:17:41.978Z,96802.42
2018-12-16T13:20:11.605Z,96803.02
2018-12-16T13:22:40.898Z,96803.89
2018-12-16T13:25:33.590Z,96805.13
2018-12-16T13:27:58.358Z,96812.56
2018-12-16T13:30:27.702Z,96814.49
2018-12-16T13:32:57.009Z,96822.41
2018-12-16T13:35:26.585Z,96821.15
2018-12-16T13:37:55.992Z,96827.98
2018-12-16T13:40:25.273Z,96821.98
2018-12-16T13:42:54.754Z,96816.92
2018-12-16T13:45:24.190Z,96810.59
2018-12-16T13:47:53.506Z,96822.92
2018-12-16T13:50:22.911Z,96819.72
2018-12-16T13:52:52.262Z,96825.23
2018-12-16T13:55:21.666Z,96822.70
2018-12-16T14:00:54.661Z,96831.37
2018-12-16T14:03:24.172Z,96833.97
2018-12-16T14:05:53.685Z,96832.05
2018-12-16T14:08:23.166Z,96840.80
2018-12-16T14:10:52.710Z,96845.23
2018-12-16T14:13:22.003Z,96839.69
2018-12-16T14:15:52.529Z,96843.31
2018-12-16T14:18:22.318Z,96850.09
2018-12-16T14:23:51.158Z,96851.84
2018-12-16T14:26:20.537Z,96856.09
2018-12-16T14:28:49.833Z,96854.53
2018-12-16T14:31:19.161Z,96858.55
2018-12-16T14:33:48.602Z,96865.70
2018-12-16T14:36:18.217Z,96863.55
2018-12-16T14:38:47.774Z,96859.82
2018-12-16T14:41:17.417Z,96863.38
2018-12-16T14:43:46.926Z,96864.94
2018-12-16T14:46:16.383Z,96861.52
2018-12-16T15:05:09.048Z,96891.66
2018-12-16T15:07:38.462Z,96892.99
2018-12-16T15:10:10.959Z,96891.49
2018-12-16T15:12:40.294Z,96901.55
2018-12-16T15:15:10.207Z,96900.68
2018-12-16T15:17:42.974Z,96906.19
2018-12-16T15:20:11.073Z,96902.72
2018-12-16T15:22:40.526Z,96895.13
2018-12-16T15:25:10.111Z,96895.62
2018-12-16T15:27:39.382Z,96910.14
2018-12-16T15:30:10.821Z,96899.53
2018-12-16T15:32:40.243Z,96902.16
2018-12-16T15:35:09.576Z,96896.38
2018-12-16T15:37:38.894Z,96905.56
2018-12-16T15:40:09.040Z,96901.83
2018-12-16T15:42:38.438Z,96910.30
2018-12-16T15:45:10.404Z,96906.17
2018-12-16T15:47:39.725Z,96914.37
2018-12-16T15:50:10.296Z,96920.16
2018-12-16T15:52:39.646Z,96923.56
2018-12-16T15:55:11.229Z,96925.44
2018-12-16T15:57:40.593Z,96929.30
2018-12-16T16:00:10.227Z,96932.09
2018-12-16T16:02:39.565Z,96924.17
2018-12-16T16:05:09.049Z,96924.50
2018-12-16T16:07:38.433Z,96927.03
2018-12-16T16:10:09.256Z,96930.89
2018-12-16T16:12:38.569Z,96929.72
2018-12-16T16:15:09.073Z,96927.19
2018-12-16T16:17:38.368Z,96924.98
2018-12-16T16:20:08.086Z,96930.27
2018-12-16T16:22:37.525Z,96923.52
2018-12-16T16:25:07.174Z,96935.63
2018-12-16T16:27:36.616Z,96933.52
2018-12-16T16:30:07.395Z,96937.70
2018-12-16T16:32:36.754Z,96938.16
2018-12-16T16:35:06.770Z,96936.59
2018-12-16T16:37:36.143Z,96941.17
2018-12-16T16:40:06.525Z,96942.98
2018-12-16T16:42:35.877Z,96956.73
2018-12-16T16:45:06.505Z,96962.91
2018-12-16T16:47:35.908Z,96964.12
2018-12-16T16:50:06.226Z,96962.23
2018-12-16T16:52:35.717Z,96961.30
2018-12-16T16:55:05.588Z,96962.95
2018-12-16T16:57:34.901Z,96963.90
2018-12-16T17:00:04.861Z,96964.28
2018-12-16T17:02:34.252Z,96960.20
2018-12-16T17:05:03.842Z,96952.61
2018-12-16T17:07:33.102Z,96946.67
2018-12-16T17:10:02.473Z,96953.72
2018-12-16T17:12:31.841Z,96953.11
2018-12-16T17:15:01.130Z,96951.84
2018-12-16T17:17:30.437Z,96948.66
2018-12-16T17:19:59.722Z,96938.20
2018-12-16T17:22:28.968Z,96945.02
2018-12-16T17:24:58.238Z,96940.34
2018-12-16T17:27:27.712Z,96937.27
2018-12-16T17:29:57.117Z,96949.92
2018-12-16T17:32:26.602Z,96949.64
2018-12-16T17:34:55.993Z,96953.77
2018-12-16T17:37:25.269Z,96958.56
2018-12-16T17:39:54.547Z,96959.16
2018-12-16T17:42:23.905Z,96964.38
2018-12-16T17:44:53.270Z,96970.72
2018-12-16T17:47:22.574Z,96968.02
2018-12-16T17:49:52.684Z,96975.83
2018-12-16T17:52:22.045Z,96983.00
2018-12-16T17:54:51.498Z,96971.39
2018-12-16T17:57:20.843Z,96972.59
2018-12-16T17:59:50.319Z,96975.67
2018-12-16T18:02:19.811Z,96977.94
2018-12-16T18:04:49.122Z,96971.38
2018-12-16T18:07:18.441Z,96978.31
2018-12-16T18:09:47.746Z,96966.92
2018-12-16T18:12:17.126Z,96984.38
2018-12-16T18:14:46.489Z,96983.60
2018-12-16T18:17:16.694Z,96979.97
2018-12-16T18:19:45.986Z,96985.70
2018-12-16T18:22:15.302Z,96985.31
2018-12-16T18:24:44.717Z,96965.98
2018-12-16T18:30:15.082Z,96977.60
2018-12-16T18:32:44.552Z,96978.03
2018-12-16T18:35:14.097Z,96983.37
2018-12-16T18:37:43.564Z,96986.68
2018-12-16T18:40:13.133Z,96976.55
2018-12-16T18:42:43.628Z,96972.47
2018-12-16T18:45:13.167Z,96968.73
2018-12-16T18:47:42.461Z,96982.27
2018-12-16T18:50:12.152Z,96976.10
2018-12-16T18:52:41.636Z,96982.61
2018-12-16T18:55:11.125Z,96989.55
2018-12-16T18:57:40.482Z,96989.55
2018-12-16T19:00:11.952Z,96993.83
2018-12-16T19:02:41.269Z,97006.06
2018-12-16T19:05:10.624Z,96994.44
2018-12-16T19:07:39.950Z,97003.84
2018-12-16T19:10:10.009Z,97000.17
2018-12-16T19:12:39.322Z,97003.67
2018-12-16T19:15:09.733Z,97005.16
2018-12-16T19:17:38.969Z,96993.60
2018-12-16T19:20:08.438Z,96994.69
2018-12-16T19:22:37.686Z,96985.19
2018-12-16T19:25:07.085Z,96992.88
2018-12-16T19:27:36.419Z,96999.27
2018-12-16T19:30:07.307Z,96998.95
2018-12-16T19:32:36.734Z,96993.88
2018-12-16T19:35:07.949Z,96994.97
2018-12-16T19:37:37.203Z,97000.52
2018-12-16T19:40:07.153Z,97001.14
2018-12-16T19:42:36.433Z,97003.95
2018-12-16T19:45:07.197Z,97009.73
2018-12-16T19:47:36.481Z,97006.55
2018-12-16T19:50:07.465Z,97008.94
2018-12-16T19:52:36.790Z,97002.00
2018-12-16T19:55:06.597Z,97005.53
2018-12-16T19:57:35.881Z,97004.75
2018-12-16T20:00:05.864Z,97002.00
2018-12-16T20:02:35.215Z,97006.67
2018-12-16T20:05:05.572Z,97014.83
2018-12-16T20:07:35.180Z,97003.57
2018-12-16T20:10:04.969Z,97000.22
2018-12-16T20:12:34.244Z,97004.11
2018-12-16T20:15:03.688Z,97009.58
2018-12-16T20:17:33.070Z,97027.11
2018-12-16T20:20:02.548Z,97012.89
2018-12-16T20:22:32.149Z,97012.23
2018-12-16T20:25:01.452Z,97010.00
2018-12-16T20:27:30.777Z,97020.80
2018-12-16T20:30:00.475Z,97004.05
2018-12-16T20:32:29.722Z,97006.53
2018-12-16T20:34:59.281Z,97005.05
2018-12-16T20:37:29.307Z,97010.12
2018-12-16T20:39:58.587Z,97010.78
2018-12-16T20:42:27.834Z,97010.33
2018-12-16T20:44:57.112Z,97006.77
2018-12-16T20:47:26.371Z,97015.64
2018-12-16T20:49:55.855Z,97016.58
2018-12-16T20:52:25.619Z,97015.40
2018-12-16T20:54:54.887Z,97017.20
2018-12-16T20:57:24.151Z,97022.67
2018-12-16T20:59:53.494Z,97024.05
2018-12-16T21:02:22.851Z,97026.41
2018-12-16T21:04:52.167Z,97028.40
2018-12-16T21:07:21.553Z,97020.80
2018-12-16T21:09:50.836Z,97028.95
2018-12-16T21:12:25.251Z,97037.03
2018-12-16T21:14:59.871Z,97030.21
2018-12-16T21:18:38.505Z,97026.08
2018-12-16T21:21:07.749Z,97034.89
2018-12-16T21:23:37.031Z,97036.28
2018-12-16T21:26:06.291Z,97027.86
2018-12-16T21:28:35.774Z,97024.39
2018-12-16T21:31:05.119Z,97030.84
2018-12-16T21:33:34.444Z,97032.50
2018-12-16T21:36:03.895Z,97027.70
2018-12-16T21:38:33.307Z,97033.83
2018-12-16T21:41:03.466Z,97018.14
2018-12-16T21:43:34.932Z,97031.23
2018-12-16T21:46:04.459Z,97024.36
2018-12-16T21:48:33.671Z,97029.81
2018-12-16T21:51:02.905Z,97042.09
2018-12-16T21:53:32.106Z,97036.84
2018-12-16T21:56:01.612Z,97037.63
2018-12-16T21:58:30.839Z,97030.59
2018-12-16T22:01:00.034Z,97041.16
2018-12-16T22:03:30.294Z,97043.05
2018-12-16T22:05:59.738Z,97045.47
2018-12-16T22:08:29.035Z,97042.54
2018-12-16T22:10:58.389Z,97038.82
2018-12-16T22:13:27.702Z,97041.56
2018-12-16T22:15:57.012Z,97041.56
2018-12-16T22:18:26.386Z,97046.75
2018-12-16T22:20:55.707Z,97045.36
2018-12-16T22:23:25.021Z,97049.50
2018-12-16T22:25:54.347Z,97049.05
2018-12-16T22:28:23.828Z,97048.02
2018-12-16T22:30:53.230Z,97043.44
2018-12-16T22:33:22.567Z,97050.31
2018-12-16T22:35:51.842Z,97041.56
2018-12-16T22:38:21.104Z,97043.11
2018-12-16T22:40:51.317Z,97041.56
2018-12-16T22:43:20.603Z,97036.34
2018-12-16T22:45:49.846Z,97036.61
2018-12-16T22:48:19.153Z,97033.31
2018-12-16T22:50:48.399Z,97035.24
2018-12-16T22:53:17.726Z,97042.52
2018-12-16T22:55:47.078Z,97043.61
2018-12-16T22:58:16.375Z,97044.48
2018-12-16T23:00:51.983Z,97042.83
2018-12-16T23:03:21.244Z,97038.82
2018-12-16T23:05:52.607Z,97040.41
2018-12-16T23:08:21.959Z,97033.75
2018-12-16T23:10:51.291Z,97046.73
2018-12-16T23:13:20.551Z,97045.47
2018-12-16T23:15:49.839Z,97050.03
2018-12-16T23:18:19.147Z,97053.02
2018-12-16T23:20:48.398Z,97050.79
2018-12-16T23:23:17.721Z,97056.97
2018-12-16T23:25:47.051Z,97059.50
2018-12-16T23:28:16.583Z,97056.03
2018-12-16T23:30:45.856Z,97049.97
2018-12-16T23:33:15.153Z,97055.05
2018-12-16T23:35:44.444Z,97055.44
2018-12-16T23:38:14.290Z,97055.20
2018-12-16T23:40:43.675Z,97059.66
2018-12-16T23:43:12.902Z,97064.40
2018-12-16T23:45:42.175Z,97063.19
2018-12-16T23:48:12.106Z,97066.66
2018-12-16T23:50:41.353Z,97067.54
2018-12-16T23:53:10.762Z,97069.41
2018-12-16T23:55:40.047Z,97077.34
2018-12-16T23:58:09.263Z,97078.01
